sensor_id;sensor_type;location;lat;lon;timestamp;P1;durP1;ratioP1;P2;durP2;ratioP2
76714;SDS011;65644;44.990;20.288;2024-02-14T00:00:28;14.07;;;10.35;;
76714;SDS011;65644;44.990;20.288;2024-02-14T00:02:54;13.40;;;10.52;;
76714;SDS011;65644;44.990;20.288;2024-02-14T00:05:21;16.17;;;11.57;;
76714;SDS011;65644;44.990;20.288;2024-02-14T00:07:48;16.35;;;11.23;;
76714;SDS011;65644;44.990;20.288;2024-02-14T00:10:14;14.98;;;11.23;;
76714;SDS011;65644;44.990;20.288;2024-02-14T00:12:40;14.65;;;10.93;;
76714;SDS011;65644;44.990;20.288;2024-02-14T00:15:06;13.70;;;10.63;;
76714;SDS011;65644;44.990;20.288;2024-02-14T00:17:33;15.00;;;10.68;;
76714;SDS011;65644;44.990;20.288;2024-02-14T00:20:00;14.50;;;10.68;;
76714;SDS011;65644;44.990;20.288;2024-02-14T00:22:26;14.93;;;11.63;;
76714;SDS011;65644;44.990;20.288;2024-02-14T00:24:52;13.32;;;10.70;;
76714;SDS011;65644;44.990;20.288;2024-02-14T00:27:18;14.25;;;11.05;;
76714;SDS011;65644;44.990;20.288;2024-02-14T00:29:44;13.48;;;10.30;;
76714;SDS011;65644;44.990;20.288;2024-02-14T00:32:14;15.45;;;11.68;;
76714;SDS011;65644;44.990;20.288;2024-02-14T00:34:40;14.02;;;10.90;;
76714;SDS011;65644;44.990;20.288;2024-02-14T00:37:07;13.98;;;10.15;;
76714;SDS011;65644;44.990;20.288;2024-02-14T00:39:33;15.85;;;10.88;;
76714;SDS011;65644;44.990;20.288;2024-02-14T00:41:59;12.35;;;10.30;;
76714;SDS011;65644;44.990;20.288;2024-02-14T00:44:25;14.25;;;10.43;;
76714;SDS011;65644;44.990;20.288;2024-02-14T00:46:57;15.30;;;10.45;;
76714;SDS011;65644;44.990;20.288;2024-02-14T00:49:27;14.32;;;10.40;;
76714;SDS011;65644;44.990;20.288;2024-02-14T00:51:53;13.95;;;10.35;;
76714;SDS011;65644;44.990;20.288;2024-02-14T00:54:20;14.02;;;10.18;;
76714;SDS011;65644;44.990;20.288;2024-02-14T00:56:46;16.30;;;11.30;;
76714;SDS011;65644;44.990;20.288;2024-02-14T00:59:12;11.70;;;9.32;;
76714;SDS011;65644;44.990;20.288;2024-02-14T01:01:38;16.00;;;10.88;;
76714;SDS011;65644;44.990;20.288;2024-02-14T01:04:05;13.65;;;10.68;;
76714;SDS011;65644;44.990;20.288;2024-02-14T01:06:32;15.90;;;10.75;;
76714;SDS011;65644;44.990;20.288;2024-02-14T01:08:58;14.60;;;10.73;;
76714;SDS011;65644;44.990;20.288;2024-02-14T01:11:24;14.70;;;10.27;;
76714;SDS011;65644;44.990;20.288;2024-02-14T01:13:50;15.90;;;10.75;;
76714;SDS011;65644;44.990;20.288;2024-02-14T01:16:16;14.65;;;10.18;;
76714;SDS011;65644;44.990;20.288;2024-02-14T01:18:43;14.70;;;10.73;;
76714;SDS011;65644;44.990;20.288;2024-02-14T01:21:09;16.27;;;11.18;;
76714;SDS011;65644;44.990;20.288;2024-02-14T01:23:35;14.20;;;10.90;;
76714;SDS011;65644;44.990;20.288;2024-02-14T01:26:01;13.60;;;10.23;;
76714;SDS011;65644;44.990;20.288;2024-02-14T01:28:27;14.40;;;10.25;;
76714;SDS011;65644;44.990;20.288;2024-02-14T01:30:53;14.82;;;10.48;;
76714;SDS011;65644;44.990;20.288;2024-02-14T01:33:22;13.65;;;10.40;;
76714;SDS011;65644;44.990;20.288;2024-02-14T01:35:48;14.35;;;10.88;;
76714;SDS011;65644;44.990;20.288;2024-02-14T01:38:14;16.25;;;11.35;;
76714;SDS011;65644;44.990;20.288;2024-02-14T01:40:43;14.13;;;11.07;;
76714;SDS011;65644;44.990;20.288;2024-02-14T01:43:10;15.00;;;11.48;;
76714;SDS011;65644;44.990;20.288;2024-02-14T01:45:37;13.38;;;10.35;;
76714;SDS011;65644;44.990;20.288;2024-02-14T01:48:04;14.90;;;10.93;;
76714;SDS011;65644;44.990;20.288;2024-02-14T01:50:31;13.73;;;10.90;;
76714;SDS011;65644;44.990;20.288;2024-02-14T01:52:58;13.52;;;10.23;;
76714;SDS011;65644;44.990;20.288;2024-02-14T01:55:24;14.32;;;10.77;;
76714;SDS011;65644;44.990;20.288;2024-02-14T01:57:51;15.90;;;11.32;;
76714;SDS011;65644;44.990;20.288;2024-02-14T02:00:18;13.98;;;10.43;;
76714;SDS011;65644;44.990;20.288;2024-02-14T02:02:44;14.32;;;11.18;;
76714;SDS011;65644;44.990;20.288;2024-02-14T02:05:12;16.35;;;11.27;;
76714;SDS011;65644;44.990;20.288;2024-02-14T02:07:38;15.70;;;11.10;;
76714;SDS011;65644;44.990;20.288;2024-02-14T02:13:07;15.65;;;11.10;;
76714;SDS011;65644;44.990;20.288;2024-02-14T02:15:34;14.10;;;10.93;;
76714;SDS011;65644;44.990;20.288;2024-02-14T02:18:00;15.63;;;10.95;;
76714;SDS011;65644;44.990;20.288;2024-02-14T02:20:31;13.73;;;10.50;;
76714;SDS011;65644;44.990;20.288;2024-02-14T02:22:58;15.43;;;10.98;;
76714;SDS011;65644;44.990;20.288;2024-02-14T02:25:24;11.60;;;9.48;;
76714;SDS011;65644;44.990;20.288;2024-02-14T02:27:54;15.73;;;10.43;;
76714;SDS011;65644;44.990;20.288;2024-02-14T02:30:24;15.45;;;11.20;;
76714;SDS011;65644;44.990;20.288;2024-02-14T02:32:51;14.13;;;10.07;;
76714;SDS011;65644;44.990;20.288;2024-02-14T02:35:17;13.20;;;10.02;;
76714;SDS011;65644;44.990;20.288;2024-02-14T02:37:46;12.77;;;10.23;;
76714;SDS011;65644;44.990;20.288;2024-02-14T02:40:15;14.82;;;10.18;;
76714;SDS011;65644;44.990;20.288;2024-02-14T02:42:42;13.13;;;10.25;;
76714;SDS011;65644;44.990;20.288;2024-02-14T02:45:10;13.38;;;9.63;;
76714;SDS011;65644;44.990;20.288;2024-02-14T02:47:36;13.00;;;9.23;;
76714;SDS011;65644;44.990;20.288;2024-02-14T02:50:03;12.65;;;9.90;;
76714;SDS011;65644;44.990;20.288;2024-02-14T02:52:29;15.20;;;9.73;;
76714;SDS011;65644;44.990;20.288;2024-02-14T02:54:56;12.57;;;9.60;;
76714;SDS011;65644;44.990;20.288;2024-02-14T02:57:22;12.43;;;9.88;;
76714;SDS011;65644;44.990;20.288;2024-02-14T02:59:48;13.00;;;9.85;;
76714;SDS011;65644;44.990;20.288;2024-02-14T03:02:14;13.38;;;9.40;;
76714;SDS011;65644;44.990;20.288;2024-02-14T03:04:40;12.07;;;9.40;;
76714;SDS011;65644;44.990;20.288;2024-02-14T03:07:07;12.52;;;9.23;;
76714;SDS011;65644;44.990;20.288;2024-02-14T03:09:36;13.65;;;9.38;;
76714;SDS011;65644;44.990;20.288;2024-02-14T03:12:03;12.85;;;9.30;;
76714;SDS011;65644;44.990;20.288;2024-02-14T03:14:30;12.98;;;9.48;;
76714;SDS011;65644;44.990;20.288;2024-02-14T03:16:58;13.32;;;9.38;;
76714;SDS011;65644;44.990;20.288;2024-02-14T03:19:24;15.77;;;9.05;;
76714;SDS011;65644;44.990;20.288;2024-02-14T03:21:52;12.07;;;8.65;;
76714;SDS011;65644;44.990;20.288;2024-02-14T03:24:18;11.82;;;9.00;;
76714;SDS011;65644;44.990;20.288;2024-02-14T03:26:44;12.88;;;9.20;;
76714;SDS011;65644;44.990;20.288;2024-02-14T03:29:11;12.48;;;9.55;;
76714;SDS011;65644;44.990;20.288;2024-02-14T03:31:37;11.23;;;8.77;;
76714;SDS011;65644;44.990;20.288;2024-02-14T03:34:03;12.63;;;9.02;;
76714;SDS011;65644;44.990;20.288;2024-02-14T03:36:30;12.95;;;9.02;;
76714;SDS011;65644;44.990;20.288;2024-02-14T03:38:57;11.77;;;8.52;;
76714;SDS011;65644;44.990;20.288;2024-02-14T03:41:24;12.05;;;9.07;;
76714;SDS011;65644;44.990;20.288;2024-02-14T03:43:50;13.07;;;9.32;;
76714;SDS011;65644;44.990;20.288;2024-02-14T03:46:18;12.85;;;8.40;;
76714;SDS011;65644;44.990;20.288;2024-02-14T03:48:46;10.75;;;8.75;;
76714;SDS011;65644;44.990;20.288;2024-02-14T03:51:13;12.18;;;9.02;;
76714;SDS011;65644;44.990;20.288;2024-02-14T03:53:39;12.30;;;9.15;;
76714;SDS011;65644;44.990;20.288;2024-02-14T03:56:05;9.93;;;8.20;;
76714;SDS011;65644;44.990;20.288;2024-02-14T03:58:32;14.43;;;9.38;;
76714;SDS011;65644;44.990;20.288;2024-02-14T04:01:02;11.55;;;9.00;;
76714;SDS011;65644;44.990;20.288;2024-02-14T04:03:28;12.13;;;8.65;;
76714;SDS011;65644;44.990;20.288;2024-02-14T04:05:54;11.38;;;8.00;;
76714;SDS011;65644;44.990;20.288;2024-02-14T04:08:21;11.77;;;8.35;;
76714;SDS011;65644;44.990;20.288;2024-02-14T04:10:47;12.10;;;7.55;;
76714;SDS011;65644;44.990;20.288;2024-02-14T04:13:19;9.88;;;7.70;;
76714;SDS011;65644;44.990;20.288;2024-02-14T04:15:45;10.98;;;7.60;;
76714;SDS011;65644;44.990;20.288;2024-02-14T04:18:12;9.43;;;7.13;;
76714;SDS011;65644;44.990;20.288;2024-02-14T04:20:39;10.02;;;7.05;;
76714;SDS011;65644;44.990;20.288;2024-02-14T04:23:06;9.77;;;7.18;;
76714;SDS011;65644;44.990;20.288;2024-02-14T04:25:32;10.13;;;7.45;;
76714;SDS011;65644;44.990;20.288;2024-02-14T04:27:59;8.95;;;7.47;;
76714;SDS011;65644;44.990;20.288;2024-02-14T04:30:25;11.32;;;7.30;;
76714;SDS011;65644;44.990;20.288;2024-02-14T04:32:52;11.88;;;8.60;;
76714;SDS011;65644;44.990;20.288;2024-02-14T04:35:21;13.40;;;9.00;;
76714;SDS011;65644;44.990;20.288;2024-02-14T04:37:47;10.80;;;8.00;;
76714;SDS011;65644;44.990;20.288;2024-02-14T04:40:14;11.55;;;7.72;;
76714;SDS011;65644;44.990;20.288;2024-02-14T04:42:40;11.95;;;7.90;;
76714;SDS011;65644;44.990;20.288;2024-02-14T04:45:07;9.25;;;7.35;;
76714;SDS011;65644;44.990;20.288;2024-02-14T04:47:33;13.80;;;7.50;;
76714;SDS011;65644;44.990;20.288;2024-02-14T04:49:59;16.60;;;8.15;;
76714;SDS011;65644;44.990;20.288;2024-02-14T04:52:28;8.55;;;6.28;;
76714;SDS011;65644;44.990;20.288;2024-02-14T04:54:55;8.13;;;6.68;;
76714;SDS011;65644;44.990;20.288;2024-02-14T04:57:21;10.18;;;6.45;;
76714;SDS011;65644;44.990;20.288;2024-02-14T04:59:47;8.27;;;6.38;;
76714;SDS011;65644;44.990;20.288;2024-02-14T05:02:13;10.90;;;7.13;;
76714;SDS011;65644;44.990;20.288;2024-02-14T05:04:40;9.00;;;6.25;;
76714;SDS011;65644;44.990;20.288;2024-02-14T05:07:06;9.77;;;6.82;;
76714;SDS011;65644;44.990;20.288;2024-02-14T05:09:32;9.35;;;6.68;;
76714;SDS011;65644;44.990;20.288;2024-02-14T05:11:58;10.40;;;6.65;;
76714;SDS011;65644;44.990;20.288;2024-02-14T05:14:25;10.45;;;6.90;;
76714;SDS011;65644;44.990;20.288;2024-02-14T05:16:56;8.15;;;6.75;;
76714;SDS011;65644;44.990;20.288;2024-02-14T05:19:22;10.05;;;6.95;;
76714;SDS011;65644;44.990;20.288;2024-02-14T05:21:48;9.45;;;6.78;;
76714;SDS011;65644;44.990;20.288;2024-02-14T05:24:14;12.45;;;8.13;;
76714;SDS011;65644;44.990;20.288;2024-02-14T05:26:40;10.85;;;8.00;;
76714;SDS011;65644;44.990;20.288;2024-02-14T05:29:07;11.23;;;8.15;;
76714;SDS011;65644;44.990;20.288;2024-02-14T05:31:46;12.63;;;8.23;;
76714;SDS011;65644;44.990;20.288;2024-02-14T05:34:13;13.40;;;9.20;;
76714;SDS011;65644;44.990;20.288;2024-02-14T05:36:39;12.43;;;8.98;;
76714;SDS011;65644;44.990;20.288;2024-02-14T05:39:07;12.60;;;8.20;;
76714;SDS011;65644;44.990;20.288;2024-02-14T05:41:33;13.13;;;8.85;;
76714;SDS011;65644;44.990;20.288;2024-02-14T05:44:00;15.60;;;8.60;;
76714;SDS011;65644;44.990;20.288;2024-02-14T05:46:26;11.70;;;8.55;;
76714;SDS011;65644;44.990;20.288;2024-02-14T05:48:53;13.25;;;8.60;;
76714;SDS011;65644;44.990;20.288;2024-02-14T05:51:19;11.35;;;9.68;;
76714;SDS011;65644;44.990;20.288;2024-02-14T05:53:45;16.42;;;10.02;;
76714;SDS011;65644;44.990;20.288;2024-02-14T05:56:11;13.75;;;10.48;;
76714;SDS011;65644;44.990;20.288;2024-02-14T05:58:38;13.70;;;10.00;;
76714;SDS011;65644;44.990;20.288;2024-02-14T06:01:04;15.05;;;9.93;;
76714;SDS011;65644;44.990;20.288;2024-02-14T06:03:31;13.88;;;10.00;;
76714;SDS011;65644;44.990;20.288;2024-02-14T06:05:57;15.65;;;10.48;;
76714;SDS011;65644;44.990;20.288;2024-02-14T06:08:23;18.20;;;10.40;;
76714;SDS011;65644;44.990;20.288;2024-02-14T06:10:49;14.52;;;9.95;;
76714;SDS011;65644;44.990;20.288;2024-02-14T06:13:15;13.00;;;9.55;;
76714;SDS011;65644;44.990;20.288;2024-02-14T06:15:42;15.75;;;10.85;;
76714;SDS011;65644;44.990;20.288;2024-02-14T06:18:08;14.68;;;10.68;;
76714;SDS011;65644;44.990;20.288;2024-02-14T06:20:34;19.25;;;9.77;;
76714;SDS011;65644;44.990;20.288;2024-02-14T06:23:01;12.88;;;9.43;;
76714;SDS011;65644;44.990;20.288;2024-02-14T06:25:27;13.05;;;9.68;;
76714;SDS011;65644;44.990;20.288;2024-02-14T06:27:53;13.35;;;10.25;;
76714;SDS011;65644;44.990;20.288;2024-02-14T06:30:19;14.02;;;10.35;;
76714;SDS011;65644;44.990;20.288;2024-02-14T06:32:45;14.15;;;10.43;;
76714;SDS011;65644;44.990;20.288;2024-02-14T06:35:11;16.13;;;10.25;;
76714;SDS011;65644;44.990;20.288;2024-02-14T06:37:40;14.35;;;10.02;;
76714;SDS011;65644;44.990;20.288;2024-02-14T06:40:06;16.67;;;9.48;;
76714;SDS011;65644;44.990;20.288;2024-02-14T06:42:33;14.05;;;10.27;;
76714;SDS011;65644;44.990;20.288;2024-02-14T06:45:00;14.55;;;10.35;;
76714;SDS011;65644;44.990;20.288;2024-02-14T06:47:26;12.20;;;9.82;;
76714;SDS011;65644;44.990;20.288;2024-02-14T06:49:55;14.82;;;10.45;;
76714;SDS011;65644;44.990;20.288;2024-02-14T06:52:21;13.07;;;10.20;;
76714;SDS011;65644;44.990;20.288;2024-02-14T06:54:47;12.95;;;10.50;;
76714;SDS011;65644;44.990;20.288;2024-02-14T06:57:13;11.98;;;9.75;;
76714;SDS011;65644;44.990;20.288;2024-02-14T06:59:39;12.48;;;9.65;;
76714;SDS011;65644;44.990;20.288;2024-02-14T07:02:05;12.48;;;9.85;;
76714;SDS011;65644;44.990;20.288;2024-02-14T07:04:32;11.98;;;9.10;;
76714;SDS011;65644;44.990;20.288;2024-02-14T07:06:58;14.88;;;9.48;;
76714;SDS011;65644;44.990;20.288;2024-02-14T07:09:25;12.13;;;9.15;;
76714;SDS011;65644;44.990;20.288;2024-02-14T07:11:51;12.05;;;9.40;;
76714;SDS011;65644;44.990;20.288;2024-02-14T07:14:23;15.48;;;9.43;;
76714;SDS011;65644;44.990;20.288;2024-02-14T07:16:49;13.23;;;9.77;;
76714;SDS011;65644;44.990;20.288;2024-02-14T07:19:16;13.93;;;9.80;;
76714;SDS011;65644;44.990;20.288;2024-02-14T07:21:42;10.88;;;8.55;;
76714;SDS011;65644;44.990;20.288;2024-02-14T07:24:08;11.45;;;8.85;;
76714;SDS011;65644;44.990;20.288;2024-02-14T07:26:35;12.48;;;9.05;;
76714;SDS011;65644;44.990;20.288;2024-02-14T07:29:01;24.60;;;11.07;;
76714;SDS011;65644;44.990;20.288;2024-02-14T07:31:31;16.83;;;10.50;;
76714;SDS011;65644;44.990;20.288;2024-02-14T07:33:59;11.80;;;9.82;;
76714;SDS011;65644;44.990;20.288;2024-02-14T07:36:28;13.70;;;9.95;;
76714;SDS011;65644;44.990;20.288;2024-02-14T07:38:55;18.83;;;11.00;;
76714;SDS011;65644;44.990;20.288;2024-02-14T07:41:21;15.77;;;13.02;;
76714;SDS011;65644;44.990;20.288;2024-02-14T07:43:47;22.90;;;19.90;;
76714;SDS011;65644;44.990;20.288;2024-02-14T07:46:19;15.77;;;12.82;;
76714;SDS011;65644;44.990;20.288;2024-02-14T07:48:45;17.20;;;10.65;;
76714;SDS011;65644;44.990;20.288;2024-02-14T07:51:12;14.40;;;9.27;;
76714;SDS011;65644;44.990;20.288;2024-02-14T07:53:38;11.73;;;9.30;;
76714;SDS011;65644;44.990;20.288;2024-02-14T07:56:04;16.73;;;9.70;;
76714;SDS011;65644;44.990;20.288;2024-02-14T07:58:30;13.68;;;9.40;;
76714;SDS011;65644;44.990;20.288;2024-02-14T08:00:56;19.70;;;9.35;;
76714;SDS011;65644;44.990;20.288;2024-02-14T08:03:22;12.07;;;8.73;;
76714;SDS011;65644;44.990;20.288;2024-02-14T08:05:49;11.02;;;8.10;;
76714;SDS011;65644;44.990;20.288;2024-02-14T08:08:16;13.45;;;8.38;;
76714;SDS011;65644;44.990;20.288;2024-02-14T08:10:42;11.15;;;8.57;;
76714;SDS011;65644;44.990;20.288;2024-02-14T08:13:08;20.38;;;10.15;;
76714;SDS011;65644;44.990;20.288;2024-02-14T08:15:36;11.25;;;8.35;;
76714;SDS011;65644;44.990;20.288;2024-02-14T08:18:02;10.80;;;8.52;;
76714;SDS011;65644;44.990;20.288;2024-02-14T08:20:28;11.35;;;8.25;;
76714;SDS011;65644;44.990;20.288;2024-02-14T08:22:54;11.05;;;8.18;;
76714;SDS011;65644;44.990;20.288;2024-02-14T08:25:20;11.18;;;7.60;;
76714;SDS011;65644;44.990;20.288;2024-02-14T08:27:46;12.23;;;8.27;;
76714;SDS011;65644;44.990;20.288;2024-02-14T08:30:12;16.27;;;8.70;;
76714;SDS011;65644;44.990;20.288;2024-02-14T08:32:39;16.65;;;8.88;;
76714;SDS011;65644;44.990;20.288;2024-02-14T08:35:05;10.43;;;7.75;;
76714;SDS011;65644;44.990;20.288;2024-02-14T08:37:32;10.82;;;8.20;;
76714;SDS011;65644;44.990;20.288;2024-02-14T08:40:01;11.63;;;8.07;;
76714;SDS011;65644;44.990;20.288;2024-02-14T08:42:30;10.90;;;8.57;;
76714;SDS011;65644;44.990;20.288;2024-02-14T08:44:57;12.02;;;8.60;;
76714;SDS011;65644;44.990;20.288;2024-02-14T08:47:23;13.68;;;8.63;;
76714;SDS011;65644;44.990;20.288;2024-02-14T08:49:49;12.65;;;8.63;;
76714;SDS011;65644;44.990;20.288;2024-02-14T08:52:15;12.45;;;8.35;;
76714;SDS011;65644;44.990;20.288;2024-02-14T08:54:41;12.77;;;8.35;;
76714;SDS011;65644;44.990;20.288;2024-02-14T08:57:08;12.68;;;8.63;;
76714;SDS011;65644;44.990;20.288;2024-02-14T08:59:34;11.27;;;8.48;;
76714;SDS011;65644;44.990;20.288;2024-02-14T09:02:00;9.52;;;7.65;;
76714;SDS011;65644;44.990;20.288;2024-02-14T09:04:27;12.35;;;8.07;;
76714;SDS011;65644;44.990;20.288;2024-02-14T09:06:53;10.77;;;8.95;;
76714;SDS011;65644;44.990;20.288;2024-02-14T09:09:19;11.05;;;7.78;;
76714;SDS011;65644;44.990;20.288;2024-02-14T09:11:46;10.30;;;8.32;;
76714;SDS011;65644;44.990;20.288;2024-02-14T09:14:12;12.73;;;9.07;;
76714;SDS011;65644;44.990;20.288;2024-02-14T09:16:38;10.48;;;7.85;;
76714;SDS011;65644;44.990;20.288;2024-02-14T09:19:04;8.15;;;7.32;;
76714;SDS011;65644;44.990;20.288;2024-02-14T09:21:33;10.43;;;7.22;;
76714;SDS011;65644;44.990;20.288;2024-02-14T09:24:00;14.38;;;7.82;;
76714;SDS011;65644;44.990;20.288;2024-02-14T09:26:27;10.15;;;7.15;;
76714;SDS011;65644;44.990;20.288;2024-02-14T09:28:54;14.07;;;7.65;;
76714;SDS011;65644;44.990;20.288;2024-02-14T09:31:20;7.82;;;7.03;;
76714;SDS011;65644;44.990;20.288;2024-02-14T09:33:47;10.80;;;8.05;;
76714;SDS011;65644;44.990;20.288;2024-02-14T09:36:14;15.55;;;8.80;;
76714;SDS011;65644;44.990;20.288;2024-02-14T09:38:40;10.10;;;6.70;;
76714;SDS011;65644;44.990;20.288;2024-02-14T09:41:26;17.10;;;7.78;;
76714;SDS011;65644;44.990;20.288;2024-02-14T09:43:55;15.45;;;7.65;;
76714;SDS011;65644;44.990;20.288;2024-02-14T09:46:22;10.85;;;6.97;;
76714;SDS011;65644;44.990;20.288;2024-02-14T09:48:50;10.50;;;7.82;;
76714;SDS011;65644;44.990;20.288;2024-02-14T09:51:18;11.27;;;8.40;;
76714;SDS011;65644;44.990;20.288;2024-02-14T09:53:44;8.48;;;6.10;;
76714;SDS011;65644;44.990;20.288;2024-02-14T09:56:10;9.43;;;7.05;;
76714;SDS011;65644;44.990;20.288;2024-02-14T09:58:38;8.77;;;6.97;;
76714;SDS011;65644;44.990;20.288;2024-02-14T10:01:05;15.15;;;8.35;;
76714;SDS011;65644;44.990;20.288;2024-02-14T10:03:32;12.60;;;9.15;;
76714;SDS011;65644;44.990;20.288;2024-02-14T10:05:59;10.90;;;8.05;;
76714;SDS011;65644;44.990;20.288;2024-02-14T10:08:25;12.07;;;7.30;;
76714;SDS011;65644;44.990;20.288;2024-02-14T10:10:52;10.48;;;6.88;;
76714;SDS011;65644;44.990;20.288;2024-02-14T10:13:18;8.25;;;6.50;;
76714;SDS011;65644;44.990;20.288;2024-02-14T10:15:44;9.60;;;6.60;;
76714;SDS011;65644;44.990;20.288;2024-02-14T10:18:11;10.77;;;7.18;;
76714;SDS011;65644;44.990;20.288;2024-02-14T10:20:37;9.30;;;7.40;;
76714;SDS011;65644;44.990;20.288;2024-02-14T10:23:08;11.35;;;7.35;;
76714;SDS011;65644;44.990;20.288;2024-02-14T10:25:37;9.88;;;6.90;;
76714;SDS011;65644;44.990;20.288;2024-02-14T10:28:06;9.20;;;6.53;;
76714;SDS011;65644;44.990;20.288;2024-02-14T10:30:33;9.73;;;7.05;;
76714;SDS011;65644;44.990;20.288;2024-02-14T10:32:59;8.23;;;6.60;;
76714;SDS011;65644;44.990;20.288;2024-02-14T10:35:25;8.68;;;6.40;;
76714;SDS011;65644;44.990;20.288;2024-02-14T10:37:54;9.85;;;6.90;;
76714;SDS011;65644;44.990;20.288;2024-02-14T10:40:26;7.85;;;5.75;;
76714;SDS011;65644;44.990;20.288;2024-02-14T10:42:53;8.18;;;5.97;;
76714;SDS011;65644;44.990;20.288;2024-02-14T10:45:19;8.40;;;6.55;;
76714;SDS011;65644;44.990;20.288;2024-02-14T10:47:45;7.93;;;6.75;;
76714;SDS011;65644;44.990;20.288;2024-02-14T10:50:15;10.77;;;6.60;;
76714;SDS011;65644;44.990;20.288;2024-02-14T10:52:41;7.47;;;6.28;;
76714;SDS011;65644;44.990;20.288;2024-02-14T10:55:08;10.07;;;6.88;;
76714;SDS011;65644;44.990;20.288;2024-02-14T10:57:36;8.82;;;6.10;;
76714;SDS011;65644;44.990;20.288;2024-02-14T11:00:03;6.97;;;6.13;;
76714;SDS011;65644;44.990;20.288;2024-02-14T11:02:30;6.85;;;6.15;;
76714;SDS011;65644;44.990;20.288;2024-02-14T11:04:57;13.30;;;7.28;;
76714;SDS011;65644;44.990;20.288;2024-02-14T11:07:27;8.07;;;7.28;;
76714;SDS011;65644;44.990;20.288;2024-02-14T11:10:00;7.57;;;6.72;;
76714;SDS011;65644;44.990;20.288;2024-02-14T11:12:31;8.77;;;6.93;;
76714;SDS011;65644;44.990;20.288;2024-02-14T11:14:59;11.52;;;7.57;;
76714;SDS011;65644;44.990;20.288;2024-02-14T11:17:26;10.57;;;7.20;;
76714;SDS011;65644;44.990;20.288;2024-02-14T11:19:52;12.98;;;7.57;;
76714;SDS011;65644;44.990;20.288;2024-02-14T11:22:19;10.15;;;7.38;;
76714;SDS011;65644;44.990;20.288;2024-02-14T11:24:46;10.40;;;7.57;;
76714;SDS011;65644;44.990;20.288;2024-02-14T11:27:13;10.02;;;7.75;;
76714;SDS011;65644;44.990;20.288;2024-02-14T11:29:39;10.63;;;7.57;;
76714;SDS011;65644;44.990;20.288;2024-02-14T11:32:06;10.60;;;7.93;;
76714;SDS011;65644;44.990;20.288;2024-02-14T11:34:35;9.48;;;7.82;;
76714;SDS011;65644;44.990;20.288;2024-02-14T11:37:01;11.55;;;8.00;;
76714;SDS011;65644;44.990;20.288;2024-02-14T11:39:30;12.13;;;8.15;;
76714;SDS011;65644;44.990;20.288;2024-02-14T11:41:56;13.38;;;7.95;;
76714;SDS011;65644;44.990;20.288;2024-02-14T11:44:24;14.68;;;8.93;;
76714;SDS011;65644;44.990;20.288;2024-02-14T11:46:51;19.13;;;9.45;;
76714;SDS011;65644;44.990;20.288;2024-02-14T11:49:17;9.73;;;8.30;;
76714;SDS011;65644;44.990;20.288;2024-02-14T11:51:43;10.02;;;8.02;;
76714;SDS011;65644;44.990;20.288;2024-02-14T11:54:10;9.85;;;8.07;;
76714;SDS011;65644;44.990;20.288;2024-02-14T11:56:36;8.75;;;7.82;;
76714;SDS011;65644;44.990;20.288;2024-02-14T11:59:03;10.02;;;7.97;;
76714;SDS011;65644;44.990;20.288;2024-02-14T12:01:38;11.25;;;7.65;;
76714;SDS011;65644;44.990;20.288;2024-02-14T12:04:05;11.43;;;8.73;;
76714;SDS011;65644;44.990;20.288;2024-02-14T12:06:34;13.43;;;8.90;;
76714;SDS011;65644;44.990;20.288;2024-02-14T12:09:01;9.57;;;7.97;;
76714;SDS011;65644;44.990;20.288;2024-02-14T12:11:33;14.70;;;8.35;;
76714;SDS011;65644;44.990;20.288;2024-02-14T12:14:02;8.00;;;7.20;;
76714;SDS011;65644;44.990;20.288;2024-02-14T12:16:29;8.45;;;7.47;;
76714;SDS011;65644;44.990;20.288;2024-02-14T12:19:15;10.95;;;8.43;;
76714;SDS011;65644;44.990;20.288;2024-02-14T12:21:42;19.05;;;13.75;;
76714;SDS011;65644;44.990;20.288;2024-02-14T12:24:13;42.28;;;31.48;;
76714;SDS011;65644;44.990;20.288;2024-02-14T12:26:40;21.52;;;16.15;;
76714;SDS011;65644;44.990;20.288;2024-02-14T12:29:06;12.98;;;9.43;;
76714;SDS011;65644;44.990;20.288;2024-02-14T12:31:33;11.75;;;8.75;;
76714;SDS011;65644;44.990;20.288;2024-02-14T12:34:00;11.75;;;8.20;;
76714;SDS011;65644;44.990;20.288;2024-02-14T12:36:27;13.88;;;9.15;;
76714;SDS011;65644;44.990;20.288;2024-02-14T12:38:54;10.10;;;8.15;;
76714;SDS011;65644;44.990;20.288;2024-02-14T12:41:20;16.88;;;8.15;;
76714;SDS011;65644;44.990;20.288;2024-02-14T12:43:51;10.07;;;7.90;;
76714;SDS011;65644;44.990;20.288;2024-02-14T12:46:17;8.32;;;7.15;;
76714;SDS011;65644;44.990;20.288;2024-02-14T12:48:44;11.48;;;8.55;;
76714;SDS011;65644;44.990;20.288;2024-02-14T12:51:10;16.02;;;10.95;;
76714;SDS011;65644;44.990;20.288;2024-02-14T12:53:36;31.35;;;18.38;;
76714;SDS011;65644;44.990;20.288;2024-02-14T12:56:02;22.73;;;14.88;;
76714;SDS011;65644;44.990;20.288;2024-02-14T12:58:29;17.05;;;12.45;;
76714;SDS011;65644;44.990;20.288;2024-02-14T13:00:56;14.93;;;10.85;;
76714;SDS011;65644;44.990;20.288;2024-02-14T13:03:22;25.63;;;13.75;;
76714;SDS011;65644;44.990;20.288;2024-02-14T13:05:48;13.73;;;10.33;;
76714;SDS011;65644;44.990;20.288;2024-02-14T13:08:14;13.45;;;8.73;;
76714;SDS011;65644;44.990;20.288;2024-02-14T13:10:42;15.85;;;8.73;;
76714;SDS011;65644;44.990;20.288;2024-02-14T13:13:08;11.68;;;8.77;;
76714;SDS011;65644;44.990;20.288;2024-02-14T13:15:34;9.55;;;7.82;;
76714;SDS011;65644;44.990;20.288;2024-02-14T13:18:00;10.48;;;7.90;;
76714;SDS011;65644;44.990;20.288;2024-02-14T13:20:27;9.80;;;7.93;;
76714;SDS011;65644;44.990;20.288;2024-02-14T13:22:54;8.80;;;7.80;;
76714;SDS011;65644;44.990;20.288;2024-02-14T13:25:20;14.63;;;10.38;;
76714;SDS011;65644;44.990;20.288;2024-02-14T13:27:46;13.68;;;9.90;;
76714;SDS011;65644;44.990;20.288;2024-02-14T13:30:13;21.45;;;14.20;;
76714;SDS011;65644;44.990;20.288;2024-02-14T13:32:39;10.27;;;8.75;;
76714;SDS011;65644;44.990;20.288;2024-02-14T13:35:05;11.25;;;8.65;;
76714;SDS011;65644;44.990;20.288;2024-02-14T13:37:31;13.35;;;8.88;;
76714;SDS011;65644;44.990;20.288;2024-02-14T13:39:58;11.35;;;8.82;;
76714;SDS011;65644;44.990;20.288;2024-02-14T13:42:24;12.48;;;10.27;;
76714;SDS011;65644;44.990;20.288;2024-02-14T13:44:50;25.75;;;17.98;;
76714;SDS011;65644;44.990;20.288;2024-02-14T13:47:18;21.05;;;14.55;;
76714;SDS011;65644;44.990;20.288;2024-02-14T13:49:44;16.33;;;11.48;;
76714;SDS011;65644;44.990;20.288;2024-02-14T13:52:10;22.70;;;14.50;;
76714;SDS011;65644;44.990;20.288;2024-02-14T13:54:37;13.65;;;9.27;;
76714;SDS011;65644;44.990;20.288;2024-02-14T13:57:03;10.77;;;8.98;;
76714;SDS011;65644;44.990;20.288;2024-02-14T13:59:29;12.30;;;8.93;;
76714;SDS011;65644;44.990;20.288;2024-02-14T14:01:57;11.18;;;8.45;;
76714;SDS011;65644;44.990;20.288;2024-02-14T14:04:23;18.10;;;13.25;;
76714;SDS011;65644;44.990;20.288;2024-02-14T14:06:50;12.52;;;8.80;;
76714;SDS011;65644;44.990;20.288;2024-02-14T14:09:16;14.45;;;9.85;;
76714;SDS011;65644;44.990;20.288;2024-02-14T14:11:43;14.85;;;9.73;;
76714;SDS011;65644;44.990;20.288;2024-02-14T14:14:09;8.52;;;7.50;;
76714;SDS011;65644;44.990;20.288;2024-02-14T14:16:40;17.42;;;10.93;;
76714;SDS011;65644;44.990;20.288;2024-02-14T14:19:08;12.40;;;8.93;;